createdAt,value
2019-04-06T00:00:57.584Z,1006.44
2019-04-06T00:01:58.150Z,1006.49
2019-04-06T00:02:58.722Z,1006.57
2019-04-06T00:03:59.297Z,1006.50
2019-04-06T00:04:59.865Z,1006.53
2019-04-06T00:06:00.449Z,1006.43
2019-04-06T00:07:01.006Z,1006.49
2019-04-06T00:08:01.676Z,1006.49
2019-04-06T00:09:02.396Z,1006.43
2019-04-06T00:10:02.968Z,1006.44
2019-04-06T00:11:03.592Z,1006.49
2019-04-06T00:12:04.160Z,1006.39
2019-04-06T00:13:04.779Z,1006.38
2019-04-06T00:14:05.349Z,1006.46
2019-04-06T00:15:05.919Z,1006.44
2019-04-06T00:16:06.489Z,1006.34
2019-04-06T00:17:07.099Z,1006.35
2019-04-06T00:18:07.632Z,1006.29
2019-04-06T00:19:08.215Z,1006.35
2019-04-06T00:20:08.777Z,1006.30
2019-04-06T00:21:09.347Z,1006.28
2019-04-06T00:22:09.918Z,1006.22
2019-04-06T00:23:10.487Z,1006.24
2019-04-06T00:24:11.106Z,1006.13
2019-04-06T00:25:11.678Z,1006.12
2019-04-06T00:26:12.248Z,1006.08
2019-04-06T00:27:12.865Z,1006.05
2019-04-06T00:28:13.437Z,1006.04
2019-04-06T00:29:14.007Z,1005.98
2019-04-06T00:30:14.579Z,1005.92
2019-04-06T00:31:15.192Z,1005.96
2019-04-06T00:32:15.813Z,1005.91
2019-04-06T00:33:16.433Z,1005.88
2019-04-06T00:34:17.002Z,1005.90
2019-04-06T00:35:17.572Z,1005.88
2019-04-06T00:36:18.141Z,1005.84
2019-04-06T00:37:18.712Z,1005.78
2019-04-06T00:38:19.286Z,1005.81
2019-04-06T00:39:19.856Z,1005.86
2019-04-06T00:40:20.481Z,1005.77
2019-04-06T00:41:21.050Z,1005.79
2019-04-06T00:42:21.621Z,1005.69
2019-04-06T00:43:22.261Z,1005.74
2019-04-06T00:44:22.813Z,1005.66
2019-04-06T00:45:23.434Z,1005.74
2019-04-06T00:46:24.006Z,1005.68
2019-04-06T00:47:24.626Z,1005.59
2019-04-06T00:48:25.289Z,1005.68
2019-04-06T00:49:25.918Z,1005.70
2019-04-06T00:50:26.447Z,1005.71
2019-04-06T00:51:27.020Z,1005.77
2019-04-06T00:52:27.593Z,1005.90
2019-04-06T00:53:28.169Z,1005.85
2019-04-06T00:54:28.738Z,1005.94
2019-04-06T00:55:29.308Z,1005.91
2019-04-06T00:56:29.881Z,1005.99
2019-04-06T00:57:30.450Z,1006.06
2019-04-06T00:58:31.019Z,1006.19
2019-04-06T00:59:31.593Z,1006.49
2019-04-06T01:00:32.162Z,1006.26
2019-04-06T01:01:32.783Z,1006.22
2019-04-06T01:02:33.404Z,1006.27
2019-04-06T01:03:33.975Z,1006.24
2019-04-06T01:04:34.547Z,1006.15
2019-04-06T01:05:35.117Z,1006.06
2019-04-06T01:06:35.690Z,1005.99
2019-04-06T01:07:36.261Z,1006.03
2019-04-06T01:08:36.833Z,1006.00
2019-04-06T01:09:37.404Z,1006.01
2019-04-06T01:10:38.029Z,1006.04
2019-04-06T01:11:38.646Z,1005.95
2019-04-06T01:12:39.217Z,1005.87
2019-04-06T01:13:39.789Z,1005.95
2019-04-06T01:14:40.449Z,1005.97
2019-04-06T01:15:41.034Z,1005.94
2019-04-06T01:16:41.581Z,1005.91
2019-04-06T01:17:42.200Z,1005.81
2019-04-06T01:18:42.771Z,1005.84
2019-04-06T01:19:43.347Z,1005.85
2019-04-06T01:20:43.965Z,1005.90
2019-04-06T01:21:44.587Z,1006.02
2019-04-06T01:22:45.157Z,1005.93
2019-04-06T01:23:45.730Z,1005.96
2019-04-06T01:24:46.301Z,1005.84
2019-04-06T01:25:46.875Z,1005.85
2019-04-06T01:26:47.443Z,1005.79
2019-04-06T01:27:48.124Z,1005.75
2019-04-06T01:28:48.662Z,1005.84
2019-04-06T01:29:49.235Z,1005.74
2019-04-06T01:30:49.804Z,1005.85
2019-04-06T01:31:50.379Z,1005.85
2019-04-06T01:32:50.947Z,1005.93
2019-04-06T01:33:51.518Z,1005.87
2019-04-06T01:34:52.089Z,1005.80
2019-04-06T01:35:52.710Z,1005.91
2019-04-06T01:36:53.279Z,1005.83
2019-04-06T01:37:53.851Z,1005.87
2019-04-06T01:38:54.471Z,1005.80
2019-04-06T01:39:55.088Z,1005.88
2019-04-06T01:40:55.693Z,1005.94
2019-04-06T01:41:56.264Z,1006.01
2019-04-06T01:42:56.834Z,1005.81
2019-04-06T01:43:57.413Z,1005.82
2019-04-06T01:44:57.985Z,1005.74
2019-04-06T01:45:58.557Z,1005.65
2019-04-06T01:46:59.182Z,1005.67
2019-04-06T01:47:59.700Z,1005.69
2019-04-06T01:49:00.330Z,1005.60
2019-04-06T01:50:00.895Z,1005.59
2019-04-06T01:51:01.468Z,1005.69
2019-04-06T01:52:02.038Z,1005.57
2019-04-06T01:53:02.658Z,1005.52
2019-04-06T01:54:03.226Z,1005.52
2019-04-06T01:55:03.797Z,1005.51
2019-04-06T01:56:04.367Z,1005.51
2019-04-06T01:57:04.937Z,1005.43
2019-04-06T01:58:05.600Z,1005.49
2019-04-06T01:59:06.170Z,1005.49
2019-04-06T02:00:06.742Z,1005.51
2019-04-06T02:01:07.312Z,1005.45
2019-04-06T02:02:08.027Z,1005.38
2019-04-06T02:03:08.566Z,1005.42
2019-04-06T02:04:09.142Z,1005.42
2019-04-06T02:05:09.707Z,1005.40
2019-04-06T02:06:10.277Z,1005.40
2019-04-06T02:07:10.849Z,1005.64
2019-04-06T02:08:11.543Z,1005.66
2019-04-06T02:09:12.080Z,1005.69
2019-04-06T02:10:12.901Z,1005.60
2019-04-06T02:11:13.471Z,1005.73
2019-04-06T02:12:14.043Z,1005.80
2019-04-06T02:13:14.619Z,1005.93
2019-04-06T02:14:15.236Z,1006.16
2019-04-06T02:15:15.849Z,1005.79
2019-04-06T02:16:16.377Z,1005.72
2019-04-06T02:17:16.998Z,1005.56
2019-04-06T02:18:17.569Z,1005.49
2019-04-06T02:19:18.191Z,1005.48
2019-04-06T02:20:18.813Z,1005.47
2019-04-06T02:21:19.383Z,1005.47
2019-04-06T02:22:19.953Z,1005.38
2019-04-06T02:23:20.526Z,1005.38
2019-04-06T02:24:21.095Z,1005.33
2019-04-06T02:25:21.667Z,1005.33
2019-04-06T02:26:30.149Z,1005.27
2019-04-06T02:27:23.854Z,1005.29
2019-04-06T02:28:24.422Z,1005.28
2019-04-06T02:29:25.044Z,1005.18
2019-04-06T02:30:25.620Z,1005.24
2019-04-06T02:31:26.190Z,1005.18
2019-04-06T02:32:26.773Z,1005.14
2019-04-06T02:33:27.341Z,1005.15
2019-04-06T02:34:27.918Z,1005.18
2019-04-06T02:35:28.527Z,1005.18
2019-04-06T02:36:29.099Z,1005.18
2019-04-06T02:37:29.711Z,1005.13
2019-04-06T02:38:30.328Z,1005.18
2019-04-06T02:39:30.899Z,1005.13
2019-04-06T02:40:31.471Z,1005.06
2019-04-06T02:41:32.044Z,1005.10
2019-04-06T02:42:32.630Z,1005.10
2019-04-06T02:43:33.190Z,1005.12
2019-04-06T02:44:33.858Z,1005.24
2019-04-06T02:45:34.545Z,1005.18
2019-04-06T02:46:35.338Z,1005.13
2019-04-06T02:47:36.082Z,1005.07
2019-04-06T02:48:36.611Z,1005.00
2019-04-06T02:49:37.229Z,1004.98
2019-04-06T02:50:37.858Z,1005.02
2019-04-06T02:51:38.508Z,1005.11
2019-04-06T02:52:39.152Z,1005.30
2019-04-06T02:53:39.694Z,1005.35
2019-04-06T02:54:40.309Z,1005.27
2019-04-06T02:55:40.938Z,1005.23
2019-04-06T02:56:46.382Z,1005.27
2019-04-06T02:57:43.052Z,1005.18
2019-04-06T02:58:43.628Z,1005.16
2019-04-06T02:59:44.200Z,1005.08
2019-04-06T03:00:44.905Z,1005.05
2019-04-06T03:01:45.434Z,1005.05
2019-04-06T03:02:46.055Z,1005.04
2019-04-06T03:03:46.717Z,1005.05
2019-04-06T03:04:47.343Z,1005.00
2019-04-06T03:05:47.909Z,1004.98
2019-04-06T03:06:48.484Z,1005.06
2019-04-06T03:07:49.101Z,1005.08
2019-04-06T03:08:49.711Z,1005.07
2019-04-06T03:09:50.337Z,1005.07
2019-04-06T03:10:50.934Z,1005.07
2019-04-06T03:11:51.477Z,1005.04
2019-04-06T03:12:52.097Z,1005.00
2019-04-06T03:13:52.668Z,1005.05
2019-04-06T03:14:53.235Z,1005.04
2019-04-06T03:15:53.810Z,1005.07
2019-04-06T03:16:54.379Z,1004.93
2019-04-06T03:17:54.989Z,1005.03
2019-04-06T03:18:55.614Z,1005.03
2019-04-06T03:19:56.196Z,1005.03
2019-04-06T03:20:56.795Z,1004.94
2019-04-06T03:21:57.368Z,1005.08
2019-04-06T03:22:57.936Z,1005.17
2019-04-06T03:23:58.509Z,1005.08
2019-04-06T03:24:59.153Z,1005.11
2019-04-06T03:25:59.680Z,1005.24
2019-04-06T03:27:02.647Z,1005.32
2019-04-06T03:28:02.046Z,1005.12
2019-04-06T03:29:02.585Z,1005.07
2019-04-06T03:30:03.487Z,1004.95
2019-04-06T03:31:04.171Z,1004.83
2019-04-06T03:32:04.984Z,1004.87
2019-04-06T03:33:05.718Z,1004.76
2019-04-06T03:34:06.207Z,1004.76
2019-04-06T03:35:06.849Z,1004.66
2019-04-06T03:36:07.541Z,1004.63
2019-04-06T03:37:08.092Z,1004.60
2019-04-06T03:38:08.716Z,1004.57
2019-04-06T03:39:09.276Z,1004.60
2019-04-06T03:40:09.961Z,1004.64
2019-04-06T03:41:10.657Z,1004.68
2019-04-06T03:42:11.677Z,1004.70
2019-04-06T03:43:12.421Z,1004.69
2019-04-06T03:44:12.996Z,1004.73
2019-04-06T03:45:13.862Z,1004.80
2019-04-06T03:46:14.856Z,1004.70
2019-04-06T03:47:15.462Z,1004.88
2019-04-06T03:48:16.040Z,1004.91
2019-04-06T03:49:16.604Z,1004.96
2019-04-06T03:50:17.229Z,1005.02
2019-04-06T03:51:17.795Z,1005.21
2019-04-06T03:52:18.371Z,1005.28
2019-04-06T03:53:19.150Z,1005.19
2019-04-06T03:54:19.722Z,1005.27
2019-04-06T03:55:20.305Z,1005.22
2019-04-06T03:56:21.073Z,1005.15
2019-04-06T03:57:21.627Z,1005.26
2019-04-06T03:58:22.190Z,1005.25
2019-04-06T03:59:22.769Z,1005.16
2019-04-06T04:00:23.333Z,1005.07
2019-04-06T04:01:23.904Z,1004.98
2019-04-06T04:02:24.474Z,1004.91
2019-04-06T04:03:25.119Z,1004.83
2019-04-06T04:04:25.654Z,1004.92
2019-04-06T04:05:26.227Z,1004.86
2019-04-06T04:06:26.799Z,1004.89
2019-04-06T04:07:27.370Z,1004.84
2019-04-06T04:08:27.948Z,1004.86
2019-04-06T04:09:28.511Z,1004.84
2019-04-06T04:10:29.080Z,1004.81
2019-04-06T04:11:29.652Z,1004.80
2019-04-06T04:12:30.352Z,1004.84
2019-04-06T04:13:31.144Z,1004.82
2019-04-06T04:14:31.685Z,1004.85
2019-04-06T04:15:32.303Z,1004.81
2019-04-06T04:16:32.876Z,1004.84
2019-04-06T04:17:33.562Z,1004.77
2019-04-06T04:18:34.731Z,1004.83
2019-04-06T04:19:35.408Z,1004.74
2019-04-06T04:20:35.944Z,1004.75
2019-04-06T04:21:36.555Z,1004.80
2019-04-06T04:22:37.131Z,1004.77
2019-04-06T04:23:37.694Z,1004.75
2019-04-06T04:24:38.317Z,1004.77
2019-04-06T04:25:38.930Z,1004.74
2019-04-06T04:26:39.672Z,1004.75
2019-04-06T04:27:40.708Z,1004.75
2019-04-06T04:28:41.301Z,1004.74
2019-04-06T04:29:41.848Z,1004.70
2019-04-06T04:30:42.457Z,1004.72
2019-04-06T04:31:43.034Z,1004.59
2019-04-06T04:32:43.598Z,1004.60
2019-04-06T04:33:44.174Z,1004.73
2019-04-06T04:34:44.835Z,1004.62
2019-04-06T04:35:46.251Z,1004.73
2019-04-06T04:36:46.821Z,1004.59
2019-04-06T04:37:47.405Z,1004.67
2019-04-06T04:38:48.031Z,1004.62
2019-04-06T04:39:48.582Z,1004.70
2019-04-06T04:40:49.152Z,1004.70
2019-04-06T04:41:49.722Z,1004.73
2019-04-06T04:42:50.352Z,1004.76
2019-04-06T04:43:50.963Z,1004.75
2019-04-06T04:44:51.550Z,1004.71
2019-04-06T04:45:52.105Z,1004.75
2019-04-06T04:46:52.831Z,1004.71
2019-04-06T04:47:53.412Z,1004.67
2019-04-06T04:48:53.976Z,1004.68
2019-04-06T04:49:54.556Z,1004.63
2019-04-06T04:50:55.179Z,1004.62
2019-04-06T04:51:55.748Z,1004.58
2019-04-06T04:52:56.409Z,1004.56
2019-04-06T04:53:57.195Z,1004.53
2019-04-06T04:54:57.987Z,1004.60
2019-04-06T04:55:58.561Z,1004.56
2019-04-06T04:56:59.127Z,1004.71
2019-04-06T04:57:59.699Z,1004.68
2019-04-06T04:59:00.268Z,1004.64
2019-04-06T05:00:00.930Z,1004.70
2019-04-06T05:01:01.554Z,1004.71
2019-04-06T05:02:02.109Z,1004.69
2019-04-06T05:03:02.679Z,1004.71
2019-04-06T05:04:03.304Z,1004.61
2019-04-06T05:05:03.912Z,1004.69
2019-04-06T05:06:04.483Z,1004.63
2019-04-06T05:07:05.092Z,1004.62
2019-04-06T05:08:05.662Z,1004.56
2019-04-06T05:09:06.231Z,1004.58
2019-04-06T05:10:06.802Z,1004.63
2019-04-06T05:11:07.449Z,1004.52
2019-04-06T05:12:08.094Z,1004.51
2019-04-06T05:13:08.822Z,1004.51
2019-04-06T05:14:09.400Z,1004.69
2019-04-06T05:15:10.144Z,1004.62
2019-04-06T05:16:10.624Z,1004.70
2019-04-06T05:17:11.195Z,1004.73
2019-04-06T05:18:11.776Z,1004.75
2019-04-06T05:19:12.340Z,1004.64
2019-04-06T05:20:12.961Z,1004.71
2019-04-06T05:21:13.535Z,1004.71
2019-04-06T05:22:14.101Z,1004.71
2019-04-06T05:23:14.672Z,1004.59
2019-04-06T05:24:15.320Z,1004.74
2019-04-06T05:25:15.890Z,1004.78
2019-04-06T05:26:16.685Z,1004.76
2019-04-06T05:27:17.232Z,1004.73
2019-04-06T05:28:17.837Z,1004.92
2019-04-06T05:29:18.406Z,1005.01
2019-04-06T05:30:19.029Z,1004.89
2019-04-06T05:31:19.762Z,1004.91
2019-04-06T05:32:20.285Z,1005.00
2019-04-06T05:33:20.854Z,1004.97
2019-04-06T05:34:21.525Z,1005.17
2019-04-06T05:35:22.145Z,1005.07
2019-04-06T05:36:22.961Z,1004.97
2019-04-06T05:37:23.375Z,1005.09
2019-04-06T05:38:23.996Z,1005.29
2019-04-06T05:39:24.566Z,1005.13
2019-04-06T05:40:25.232Z,1005.13
2019-04-06T05:41:25.767Z,1005.02
2019-04-06T05:42:26.343Z,1004.99
2019-04-06T05:43:26.910Z,1005.09
2019-04-06T05:44:27.487Z,1005.04
2019-04-06T05:45:28.183Z,1005.13
2019-04-06T05:46:28.739Z,1005.13
2019-04-06T05:47:29.282Z,1005.08
2019-04-06T05:48:29.927Z,1005.03
2019-04-06T05:49:30.694Z,1005.02
2019-04-06T05:50:31.274Z,1004.88
2019-04-06T05:51:31.896Z,1004.92
2019-04-06T05:52:32.658Z,1004.80
2019-04-06T05:53:33.149Z,1004.83
2019-04-06T05:54:33.673Z,1004.80
2019-04-06T05:55:34.247Z,1004.85
2019-04-06T05:56:34.897Z,1004.86
2019-04-06T05:57:37.267Z,1004.86
2019-04-06T05:58:39.959Z,1004.83
2019-04-06T05:59:40.962Z,1004.84
2019-04-06T06:00:41.049Z,1004.84
2019-04-06T06:01:41.058Z,1004.87
2019-04-06T06:02:41.842Z,1004.87
2019-04-06T06:03:42.480Z,1004.97
2019-04-06T06:04:43.066Z,1004.97
2019-04-06T06:05:43.664Z,1005.02
2019-04-06T06:06:44.238Z,1005.13
2019-04-06T06:07:44.804Z,1005.06
2019-04-06T06:08:45.374Z,1005.15
2019-04-06T06:09:46.120Z,1005.13
2019-04-06T06:10:46.650Z,1005.16
2019-04-06T06:11:47.221Z,1005.20
2019-04-06T06:12:47.839Z,1005.21
2019-04-06T06:13:48.409Z,1005.23
2019-04-06T06:14:49.028Z,1005.21
2019-04-06T06:15:49.598Z,1005.18
2019-04-06T06:16:50.205Z,1005.20
2019-04-06T06:17:50.813Z,1005.23
2019-04-06T06:18:51.378Z,1005.28
2019-04-06T06:19:51.994Z,1005.20
2019-04-06T06:20:52.570Z,1005.23
2019-04-06T06:21:53.135Z,1005.30
2019-04-06T06:22:53.758Z,1005.29
2019-04-06T06:23:54.359Z,1005.24
2019-04-06T06:24:55.129Z,1005.29
2019-04-06T06:25:55.597Z,1005.21
2019-04-06T06:26:56.125Z,1005.16
2019-04-06T06:27:56.696Z,1005.23
2019-04-06T06:28:57.266Z,1005.30
2019-04-06T06:29:57.836Z,1005.25
2019-04-06T06:30:58.594Z,1005.26
2019-04-06T06:31:59.409Z,1005.20
2019-04-06T06:33:00.021Z,1005.14
2019-04-06T06:34:00.599Z,1005.10
2019-04-06T06:35:01.159Z,1005.14
2019-04-06T06:36:01.730Z,1005.13
2019-04-06T06:37:02.298Z,1005.19
2019-04-06T06:38:02.867Z,1005.28
2019-04-06T06:39:03.436Z,1005.27
2019-04-06T06:40:04.008Z,1005.34
2019-04-06T06:41:04.726Z,1005.34
2019-04-06T06:42:05.296Z,1005.41
2019-04-06T06:43:05.869Z,1005.49
2019-04-06T06:44:06.715Z,1005.42
2019-04-06T06:45:07.662Z,1005.32
2019-04-06T06:46:08.203Z,1005.32
2019-04-06T06:47:08.772Z,1005.27
2019-04-06T06:48:09.415Z,1005.25
2019-04-06T06:49:09.964Z,1005.16
2019-04-06T06:50:10.544Z,1005.23
2019-04-06T06:51:11.151Z,1005.10
2019-04-06T06:52:11.721Z,1005.19
2019-04-06T06:53:12.447Z,1005.19
2019-04-06T06:54:13.031Z,1005.17
2019-04-06T06:55:13.634Z,1005.09
2019-04-06T06:56:14.238Z,1005.12
2019-04-06T06:57:14.771Z,1005.14
2019-04-06T06:58:24.588Z,1005.06
2019-04-06T06:59:16.948Z,1005.10
2019-04-06T07:00:22.621Z,1004.92
2019-04-06T07:01:23.137Z,1004.98
2019-04-06T07:02:23.954Z,1004.97
2019-04-06T07:03:24.480Z,1005.02
2019-04-06T07:04:25.329Z,1005.02
2019-04-06T07:05:25.870Z,1004.98
2019-04-06T07:06:26.438Z,1005.01
2019-04-06T07:07:27.008Z,1005.11
2019-04-06T07:08:27.627Z,1005.26
2019-04-06T07:09:28.200Z,1005.27
2019-04-06T07:10:28.862Z,1005.17
2019-04-06T07:11:29.491Z,1005.27
2019-04-06T07:12:30.143Z,1005.25
2019-04-06T07:13:30.869Z,1005.36
2019-04-06T07:14:31.630Z,1005.35
2019-04-06T07:15:32.161Z,1005.35
2019-04-06T07:16:32.730Z,1005.37
2019-04-06T07:17:33.300Z,1005.44
2019-04-06T07:18:33.873Z,1005.39
2019-04-06T07:19:34.488Z,1005.34
2019-04-06T07:20:35.056Z,1005.35
2019-04-06T07:21:35.714Z,1005.37
2019-04-06T07:22:36.702Z,1005.40
2019-04-06T07:23:37.360Z,1005.43
2019-04-06T07:24:37.892Z,1005.31
2019-04-06T07:25:38.462Z,1005.47
2019-04-06T07:26:41.161Z,1005.47
2019-04-06T07:27:40.600Z,1005.57
2019-04-06T07:28:41.173Z,1005.58
2019-04-06T07:29:41.786Z,1005.55
2019-04-06T07:30:42.357Z,1005.59
2019-04-06T07:31:42.979Z,1005.64
2019-04-06T07:32:43.827Z,1005.57
2019-04-06T07:33:44.436Z,1005.54
2019-04-06T07:34:44.997Z,1005.54
2019-04-06T07:35:45.728Z,1005.64
2019-04-06T07:36:46.255Z,1005.60
2019-04-06T07:37:46.878Z,1005.68
2019-04-06T07:38:47.497Z,1005.69
2019-04-06T07:39:48.067Z,1005.66
2019-04-06T07:40:48.691Z,1005.67
2019-04-06T07:41:49.416Z,1005.63
2019-04-06T07:42:49.941Z,1005.76
2019-04-06T07:43:50.570Z,1005.68
2019-04-06T07:44:51.225Z,1005.76
2019-04-06T07:45:51.856Z,1005.78
2019-04-06T07:46:52.635Z,1005.76
2019-04-06T07:47:53.257Z,1005.76
2019-04-06T07:48:53.827Z,1005.67
2019-04-06T07:49:54.625Z,1005.82
2019-04-06T07:50:55.148Z,1005.77
2019-04-06T07:51:55.894Z,1005.78
2019-04-06T07:52:56.471Z,1005.83
2019-04-06T07:53:57.040Z,1005.87
2019-04-06T07:54:57.878Z,1005.80
2019-04-06T07:55:58.403Z,1005.87
2019-04-06T07:56:58.975Z,1005.89
2019-04-06T07:57:59.578Z,1005.91
2019-04-06T07:59:00.169Z,1005.89
2019-04-06T08:00:00.751Z,1005.83
2019-04-06T08:01:01.468Z,1005.82
2019-04-06T08:02:02.041Z,1006.01
2019-04-06T08:03:02.753Z,1005.83
2019-04-06T08:04:03.330Z,1005.85
2019-04-06T08:05:03.901Z,1005.91
2019-04-06T08:06:04.475Z,1005.79
2019-04-06T08:07:05.088Z,1005.93
2019-04-06T08:08:05.711Z,1005.87
2019-04-06T08:09:06.281Z,1005.96
2019-04-06T08:10:06.854Z,1005.90
2019-04-06T08:11:07.424Z,1005.96
2019-04-06T08:12:07.998Z,1005.87
2019-04-06T08:13:08.563Z,1005.82
2019-04-06T08:14:09.248Z,1005.96
2019-04-06T08:15:10.054Z,1005.96
2019-04-06T08:16:10.587Z,1005.95
2019-04-06T08:17:11.158Z,1005.96
2019-04-06T08:18:11.736Z,1005.98
2019-04-06T08:19:12.296Z,1006.08
2019-04-06T08:20:12.865Z,1006.11
2019-04-06T08:21:13.647Z,1006.20
2019-04-06T08:22:14.181Z,1006.26
2019-04-06T08:23:14.751Z,1006.12
2019-04-06T08:24:15.362Z,1006.25
2019-04-06T08:25:15.936Z,1006.14
2019-04-06T08:26:16.507Z,1006.11
2019-04-06T08:27:17.128Z,1006.06
2019-04-06T08:28:17.698Z,1006.20
2019-04-06T08:29:18.272Z,1006.12
2019-04-06T08:30:18.844Z,1006.08
2019-04-06T08:31:19.459Z,1006.08
2019-04-06T08:32:19.986Z,1006.17
2019-04-06T08:33:20.559Z,1006.12
2019-04-06T08:34:21.130Z,1006.07
2019-04-06T08:35:26.076Z,1006.12
2019-04-06T08:36:23.267Z,1006.10
2019-04-06T08:37:23.887Z,1006.03
2019-04-06T08:38:24.457Z,1006.08
2019-04-06T08:39:25.821Z,1006.04
2019-04-06T08:40:25.639Z,1006.03
2019-04-06T08:41:26.295Z,1006.02
2019-04-06T08:42:26.831Z,1006.11
2019-04-06T08:43:27.575Z,1006.15
2019-04-06T08:44:28.119Z,1006.04
2019-04-06T08:45:28.741Z,1006.07
2019-04-06T08:46:29.303Z,1006.07
2019-04-06T08:47:29.873Z,1006.16
2019-04-06T08:48:30.472Z,1006.17
2019-04-06T08:49:31.064Z,1006.16
2019-04-06T08:50:31.686Z,1006.17
2019-04-06T08:51:32.292Z,1006.21
2019-04-06T08:52:33.056Z,1006.21
2019-04-06T08:53:33.576Z,1006.17
2019-04-06T08:54:34.148Z,1006.22
2019-04-06T08:55:34.716Z,1006.14
2019-04-06T08:56:35.396Z,1006.15
2019-04-06T08:57:35.900Z,1006.17
2019-04-06T08:58:36.801Z,1006.20
2019-04-06T08:59:37.335Z,1006.34
2019-04-06T09:00:38.048Z,1006.48
2019-04-06T09:01:38.591Z,1006.57
2019-04-06T09:02:39.154Z,1006.70
2019-04-06T09:03:39.732Z,1006.78
2019-04-06T09:04:40.349Z,1006.66
2019-04-06T09:05:40.960Z,1006.56
2019-04-06T09:06:41.781Z,1006.53
2019-04-06T09:07:42.366Z,1006.55
2019-04-06T09:08:43.130Z,1006.56
2019-04-06T09:09:43.729Z,1006.63
2019-04-06T09:10:44.299Z,1006.62
2019-04-06T09:11:44.869Z,1006.67
2019-04-06T09:12:45.489Z,1006.67
2019-04-06T09:13:46.055Z,1006.72
2019-04-06T09:14:46.626Z,1006.70
2019-04-06T09:15:47.199Z,1006.71
2019-04-06T09:16:47.769Z,1006.63
2019-04-06T09:17:48.341Z,1006.74
2019-04-06T09:18:49.490Z,1006.66
2019-04-06T09:19:49.521Z,1006.74
2019-04-06T09:20:50.093Z,1006.74
2019-04-06T09:21:50.817Z,1006.74
2019-04-06T09:22:51.590Z,1006.71
2019-04-06T09:23:52.213Z,1006.78
2019-04-06T09:24:52.913Z,1006.82
2019-04-06T09:25:53.445Z,1006.79
2019-04-06T09:26:54.065Z,1006.71
2019-04-06T09:27:54.638Z,1006.84
2019-04-06T09:28:55.210Z,1006.82
2019-04-06T09:29:55.781Z,1006.84
2019-04-06T09:30:56.354Z,1006.82
2019-04-06T09:31:56.978Z,1006.75
2019-04-06T09:32:57.695Z,1006.88
2019-04-06T09:33:58.266Z,1006.81
2019-04-06T09:34:58.836Z,1006.82
2019-04-06T09:35:59.407Z,1006.79
2019-04-06T09:37:00.031Z,1006.90
2019-04-06T09:38:00.599Z,1007.06
2019-04-06T09:39:01.172Z,1006.80
2019-04-06T09:40:01.743Z,1006.79
2019-04-06T09:41:02.330Z,1006.93
2019-04-06T09:42:02.937Z,1006.91
2019-04-06T09:43:03.559Z,1006.86
2019-04-06T09:44:04.130Z,1006.90
2019-04-06T09:45:05.029Z,1006.87
2019-04-06T09:46:05.623Z,1006.92
2019-04-06T09:47:06.347Z,1006.96
2019-04-06T09:48:06.872Z,1006.92
2019-04-06T09:49:07.443Z,1006.88
2019-04-06T09:50:08.042Z,1006.97
2019-04-06T09:51:08.589Z,1006.97
2019-04-06T09:52:09.161Z,1006.88
2019-04-06T09:53:09.834Z,1006.95
2019-04-06T09:54:10.405Z,1006.96
2019-04-06T09:55:10.978Z,1007.02
2019-04-06T09:56:11.866Z,1006.92
2019-04-06T09:57:12.162Z,1006.98
2019-04-06T09:58:12.733Z,1007.04
2019-04-06T09:59:13.357Z,1007.08
2019-04-06T10:00:14.070Z,1007.07
2019-04-06T10:01:14.806Z,1007.05
2019-04-06T10:02:15.635Z,1007.10
2019-04-06T10:03:16.375Z,1007.12
2019-04-06T10:04:16.894Z,1007.28
2019-04-06T10:05:17.463Z,1007.15
2019-04-06T10:06:18.085Z,1007.10
2019-04-06T10:07:18.656Z,1007.31
2019-04-06T10:08:19.233Z,1007.26
2019-04-06T10:09:19.844Z,1007.44
2019-04-06T10:10:20.534Z,1007.28
2019-04-06T10:11:21.268Z,1007.37
2019-04-06T10:12:21.863Z,1007.28
2019-04-06T10:13:22.450Z,1007.30
2019-04-06T10:14:23.025Z,1007.42
2019-04-06T10:15:23.590Z,1007.49
2019-04-06T10:16:24.362Z,1007.49
2019-04-06T10:17:24.935Z,1007.38
2019-04-06T10:18:25.546Z,1007.45
2019-04-06T10:19:26.314Z,1007.41
2019-04-06T10:20:26.891Z,1007.35
2019-04-06T10:21:27.577Z,1007.41
2019-04-06T10:22:28.418Z,1007.46
2019-04-06T10:23:29.099Z,1007.41
2019-04-06T10:24:29.679Z,1007.48
2019-04-06T10:25:30.298Z,1007.39
2019-04-06T10:26:31.044Z,1007.48
2019-04-06T10:27:31.687Z,1007.51
2019-04-06T10:28:32.207Z,1007.62
2019-04-06T10:29:32.984Z,1007.74
2019-04-06T10:30:33.820Z,1007.55
2019-04-06T10:31:34.357Z,1007.58
2019-04-06T10:32:35.198Z,1007.55
2019-04-06T10:33:36.289Z,1007.54
2019-04-06T10:34:37.010Z,1007.55
2019-04-06T10:35:37.606Z,1007.54
2019-04-06T10:36:38.331Z,1007.63
2019-04-06T10:37:38.941Z,1007.65
2019-04-06T10:38:39.876Z,1007.70
2019-04-06T10:39:40.451Z,1007.63
2019-04-06T10:40:41.021Z,1007.61
2019-04-06T10:41:41.924Z,1007.63
2019-04-06T10:42:42.501Z,1007.65
2019-04-06T10:43:43.076Z,1007.67
2019-04-06T10:44:43.691Z,1007.61
2019-04-06T10:45:44.302Z,1007.67
2019-04-06T10:46:44.874Z,1007.54
2019-04-06T10:47:45.448Z,1007.61
2019-04-06T10:48:46.014Z,1007.55
2019-04-06T10:49:46.585Z,1007.54
2019-04-06T10:50:47.155Z,1007.46
2019-04-06T10:51:47.727Z,1007.50
2019-04-06T10:52:48.296Z,1007.56
2019-04-06T10:53:48.869Z,1007.60
2019-04-06T10:54:49.439Z,1007.51
2019-04-06T10:55:50.011Z,1007.48
2019-04-06T10:56:50.581Z,1007.63
2019-04-06T10:57:51.414Z,1007.61
2019-04-06T10:58:51.931Z,1007.65
2019-04-06T11:00:01.169Z,1007.72
2019-04-06T11:00:54.121Z,1007.72
2019-04-06T11:01:54.697Z,1007.75
2019-04-06T11:02:55.263Z,1007.74
2019-04-06T11:03:55.833Z,1007.75
2019-04-06T11:04:56.688Z,1007.65
2019-04-06T11:05:57.217Z,1007.73
2019-04-06T11:06:57.834Z,1007.67
2019-04-06T11:07:58.481Z,1007.71
2019-04-06T11:08:59.009Z,1007.67
2019-04-06T11:09:59.582Z,1007.67
2019-04-06T11:11:02.450Z,1007.67
2019-04-06T11:12:00.774Z,1007.72
2019-04-06T11:13:01.336Z,1007.67
2019-04-06T11:14:01.959Z,1007.73
2019-04-06T11:15:02.582Z,1007.75
2019-04-06T11:16:03.158Z,1007.74
2019-04-06T11:17:03.774Z,1007.74
2019-04-06T11:18:04.345Z,1007.75
2019-04-06T11:19:04.917Z,1007.68
2019-04-06T11:20:05.488Z,1007.73
2019-04-06T11:21:06.061Z,1007.65
2019-04-06T11:22:06.683Z,1007.69
2019-04-06T11:23:07.253Z,1007.77
2019-04-06T11:24:08.030Z,1007.77
2019-04-06T11:25:08.550Z,1007.74
2019-04-06T11:26:09.171Z,1007.76
2019-04-06T11:27:09.746Z,1007.74
2019-04-06T11:28:10.549Z,1007.79
2019-04-06T11:29:11.125Z,1007.84
2019-04-06T11:30:14.243Z,1007.87
2019-04-06T11:31:13.364Z,1007.80
2019-04-06T11:32:13.981Z,1007.91
2019-04-06T11:33:14.605Z,1007.87
2019-04-06T11:34:15.174Z,1007.90
2019-04-06T11:35:16.038Z,1007.84
2019-04-06T11:36:16.673Z,1007.92
2019-04-06T11:37:17.243Z,1007.86
2019-04-06T11:38:17.825Z,1007.84
2019-04-06T11:39:18.597Z,1007.87
2019-04-06T11:40:19.269Z,1007.84
2019-04-06T11:41:19.799Z,1007.85
2019-04-06T11:42:20.373Z,1007.86
2019-04-06T11:43:20.996Z,1007.88
2019-04-06T11:44:21.571Z,1007.85
2019-04-06T11:45:22.447Z,1007.93
2019-04-06T11:46:23.213Z,1007.86
2019-04-06T11:47:23.791Z,1007.90
2019-04-06T11:48:24.361Z,1007.94
2019-04-06T11:49:25.203Z,1007.93
2019-04-06T11:50:25.786Z,1007.93
2019-04-06T11:51:26.588Z,1007.95
2019-04-06T11:52:27.127Z,1008.02
2019-04-06T11:53:27.738Z,1007.95
2019-04-06T11:54:28.353Z,1008.10
2019-04-06T11:55:28.885Z,1008.06
2019-04-06T11:56:29.455Z,1008.05
2019-04-06T11:57:30.180Z,1007.99
2019-04-06T11:58:30.752Z,1008.03
2019-04-06T11:59:31.377Z,1008.12
2019-04-06T12:00:31.950Z,1008.04
2019-04-06T12:01:32.575Z,1008.15
2019-04-06T12:02:33.184Z,1008.13
2019-04-06T12:03:34.120Z,1008.17
2019-04-06T12:04:35.018Z,1008.13
2019-04-06T12:05:35.565Z,1008.21
2019-04-06T12:06:36.139Z,1008.22
2019-04-06T12:07:36.763Z,1008.24
2019-04-06T12:08:37.334Z,1008.24
2019-04-06T12:09:37.995Z,1008.23
2019-04-06T12:10:38.746Z,1008.18
2019-04-06T12:11:39.578Z,1008.25
2019-04-06T12:12:40.109Z,1008.21
2019-04-06T12:13:40.678Z,1008.16